createdAt,value
2019-05-11T00:03:58.457Z,64.08
2019-05-11T00:09:07.561Z,64.08
2019-05-11T00:14:14.457Z,64.02
2019-05-11T00:19:21.459Z,64.02
2019-05-11T00:24:29.598Z,63.83
2019-05-11T00:29:42.480Z,63.72
2019-05-11T00:34:49.421Z,63.91
2019-05-11T00:39:56.448Z,63.90
2019-05-11T00:45:03.546Z,64.19
2019-05-11T00:50:12.664Z,64.31
2019-05-11T00:55:20.620Z,64.32
2019-05-11T01:00:29.478Z,64.31
2019-05-11T01:05:36.459Z,64.36
2019-05-11T01:10:43.563Z,64.47
2019-05-11T01:15:50.455Z,64.45
2019-05-11T01:20:57.457Z,64.43
2019-05-11T01:26:04.559Z,64.40
2019-05-11T01:31:11.573Z,64.94
2019-05-11T01:36:18.458Z,64.94
2019-05-11T01:41:25.577Z,65.04
2019-05-11T01:46:32.438Z,65.42
2019-05-11T01:51:39.446Z,65.42
2019-05-11T01:56:46.580Z,65.61
2019-05-11T02:01:54.840Z,65.83
2019-05-11T02:07:01.610Z,65.83
2019-05-11T02:12:08.492Z,66.39
2019-05-11T02:17:17.252Z,66.39
2019-05-11T02:22:24.444Z,66.82
2019-05-11T02:27:31.451Z,67.62
2019-05-11T02:32:38.495Z,67.85
2019-05-11T02:37:46.464Z,68.00
2019-05-11T02:42:53.450Z,68.51
2019-05-11T02:48:00.446Z,68.51
2019-05-11T02:53:08.227Z,68.60
2019-05-11T02:58:15.437Z,69.32
2019-05-11T03:03:22.431Z,69.32
2019-05-11T03:08:29.479Z,69.54
2019-05-11T03:13:36.448Z,69.36
2019-05-11T03:18:43.468Z,69.20
2019-05-11T03:23:50.445Z,69.21
2019-05-11T03:28:57.439Z,69.22
2019-05-11T03:34:04.475Z,69.31
2019-05-11T03:39:11.441Z,69.42
2019-05-11T03:44:18.485Z,69.45
2019-05-11T03:49:25.447Z,69.63
2019-05-11T03:54:32.564Z,69.63
2019-05-11T03:59:39.563Z,69.69
2019-05-11T04:04:46.556Z,69.56
2019-05-11T04:09:53.450Z,69.42
2019-05-11T04:15:00.557Z,69.42
2019-05-11T04:20:08.028Z,69.65
2019-05-11T04:25:16.102Z,69.65
2019-05-11T04:30:23.544Z,69.28
2019-05-11T04:35:31.331Z,69.28
2019-05-11T04:40:37.311Z,69.26
2019-05-11T04:45:44.451Z,69.05
2019-05-11T04:50:51.446Z,68.61
2019-05-11T04:55:59.394Z,68.13
2019-05-11T05:01:06.431Z,67.71
2019-05-11T05:06:24.903Z,67.37
2019-05-11T05:11:22.432Z,67.05
2019-05-11T05:16:31.471Z,66.68
2019-05-11T05:21:38.546Z,66.20
2019-05-11T05:26:45.495Z,65.81
2019-05-11T05:31:52.431Z,65.41
2019-05-11T05:36:59.459Z,64.57
2019-05-11T05:42:06.514Z,64.09
2019-05-11T05:47:13.467Z,62.85
2019-05-11T05:52:20.459Z,62.20
2019-05-11T05:57:27.461Z,62.20
2019-05-11T06:02:34.448Z,61.79
2019-05-11T06:07:43.425Z,61.21
2019-05-11T06:12:51.590Z,60.78
2019-05-11T06:18:00.574Z,60.23
2019-05-11T06:23:07.475Z,60.23
2019-05-11T06:28:14.568Z,60.18
2019-05-11T06:33:23.443Z,60.10
2019-05-11T06:38:30.511Z,60.00
2019-05-11T06:43:37.442Z,59.75
2019-05-11T06:48:46.455Z,58.83
2019-05-11T06:53:53.446Z,58.39
2019-05-11T06:59:00.449Z,57.81
2019-05-11T07:04:07.500Z,56.21
2019-05-11T07:09:14.452Z,55.79
2019-05-11T07:14:21.687Z,55.43
2019-05-11T07:19:28.591Z,53.98
2019-05-11T07:24:36.631Z,53.78
2019-05-11T07:29:43.567Z,53.17
2019-05-11T07:34:50.668Z,53.17
2019-05-11T07:39:58.162Z,50.83
2019-05-11T07:45:09.620Z,50.83
2019-05-11T07:50:18.204Z,50.08
2019-05-11T07:55:24.304Z,50.08
2019-05-11T08:00:31.469Z,50.16
2019-05-11T08:05:38.693Z,49.46
2019-05-11T08:10:48.122Z,49.02
2019-05-11T08:15:54.866Z,48.45
2019-05-11T08:21:01.707Z,48.01
2019-05-11T08:26:08.609Z,47.22
2019-05-11T08:31:15.573Z,46.64
2019-05-11T08:36:22.545Z,46.06
2019-05-11T08:41:29.551Z,46.06
2019-05-11T08:46:38.624Z,45.67
2019-05-11T08:51:47.665Z,45.11
2019-05-11T08:56:54.454Z,45.11
2019-05-11T09:02:02.048Z,42.82
2019-05-11T09:07:09.344Z,42.11
2019-05-11T09:12:18.321Z,41.22
2019-05-11T09:17:25.455Z,40.67
2019-05-11T09:22:32.577Z,39.61
2019-05-11T09:27:39.455Z,38.27
2019-05-11T09:32:47.789Z,38.27
2019-05-11T09:37:55.393Z,36.57
2019-05-11T09:43:02.443Z,36.06
2019-05-11T09:48:09.559Z,36.29
2019-05-11T09:53:17.744Z,35.37
2019-05-11T09:58:24.612Z,35.23
2019-05-11T10:03:31.506Z,35.17
2019-05-11T10:08:38.455Z,35.17
2019-05-11T10:13:47.608Z,33.45
2019-05-11T10:18:54.700Z,34.44
2019-05-11T10:24:05.254Z,34.75
2019-05-11T10:29:11.312Z,34.33
2019-05-11T10:34:18.518Z,34.26
2019-05-11T10:39:27.704Z,35.43
2019-05-11T10:44:34.467Z,34.76
2019-05-11T10:49:41.571Z,33.01
2019-05-11T10:54:50.885Z,32.80
2019-05-11T10:59:58.109Z,32.80
2019-05-11T11:05:08.075Z,33.23
2019-05-11T11:10:15.108Z,33.78
2019-05-11T11:15:22.572Z,33.66
2019-05-11T11:20:29.474Z,33.83
2019-05-11T11:25:37.615Z,33.83
2019-05-11T11:30:44.584Z,33.77
2019-05-11T11:35:51.445Z,33.87
2019-05-11T11:40:58.833Z,33.87
2019-05-11T11:46:08.251Z,34.26
2019-05-11T11:51:14.465Z,35.70
2019-05-11T11:56:21.614Z,35.70
2019-05-11T12:01:28.570Z,35.53
2019-05-11T12:06:35.451Z,35.63
2019-05-11T12:11:44.768Z,35.63
2019-05-11T12:17:06.721Z,35.83
2019-05-11T12:22:02.044Z,35.99
2019-05-11T12:27:09.397Z,35.79
2019-05-11T12:32:22.725Z,36.46
2019-05-11T12:37:30.580Z,36.58
2019-05-11T12:42:38.474Z,36.59
2019-05-11T12:47:47.752Z,36.59
2019-05-11T12:52:56.007Z,38.04
2019-05-11T12:58:03.427Z,38.38
2019-05-11T13:03:11.464Z,39.06
2019-05-11T13:08:18.611Z,40.39
2019-05-11T13:13:25.547Z,40.39
2019-05-11T13:18:32.482Z,42.35
2019-05-11T13:23:39.466Z,43.52
2019-05-11T13:28:48.485Z,44.92
2019-05-11T13:33:55.433Z,44.92
2019-05-11T13:39:02.462Z,46.90
2019-05-11T13:44:09.467Z,47.99
2019-05-11T13:49:17.871Z,48.50
2019-05-11T13:54:25.567Z,48.50
2019-05-11T13:59:33.504Z,49.08
2019-05-11T14:04:40.586Z,50.24
2019-05-11T14:09:48.512Z,51.39
2019-05-11T14:14:57.672Z,50.91
2019-05-11T14:20:04.585Z,50.91
2019-05-11T14:25:12.096Z,51.87
2019-05-11T14:30:19.580Z,51.87
2019-05-11T14:35:28.044Z,52.21
2019-05-11T14:40:35.545Z,53.88
2019-05-11T14:45:42.539Z,53.88
2019-05-11T14:50:49.447Z,55.39
2019-05-11T14:55:58.463Z,55.39
2019-05-11T15:01:05.471Z,54.92
2019-05-11T15:06:12.577Z,55.27
2019-05-11T15:11:19.590Z,55.06
2019-05-11T15:16:27.855Z,55.16
2019-05-11T15:21:35.415Z,55.16
2019-05-11T15:28:28.643Z,54.56
2019-05-11T15:33:38.031Z,54.10
2019-05-11T15:38:44.452Z,53.93
2019-05-11T15:43:51.443Z,54.93
2019-05-11T15:49:03.072Z,56.50
2019-05-11T15:54:09.917Z,56.50
2019-05-11T15:59:16.766Z,56.62
2019-05-11T16:04:23.588Z,56.63
2019-05-11T16:09:30.570Z,58.48
2019-05-11T16:14:38.311Z,59.27
2019-05-11T16:19:45.470Z,59.27
2019-05-11T16:24:52.568Z,59.75
2019-05-11T16:29:59.652Z,60.69
2019-05-11T16:35:08.813Z,60.69
2019-05-11T16:40:20.186Z,60.42
2019-05-11T16:45:28.006Z,61.31
2019-05-11T16:50:34.586Z,61.36
2019-05-11T16:55:41.475Z,61.31
2019-05-11T17:00:49.580Z,61.13
2019-05-11T17:05:58.656Z,61.07
2019-05-11T17:11:08.001Z,61.07
2019-05-11T17:16:14.451Z,61.65
2019-05-11T17:21:21.629Z,61.65
2019-05-11T17:26:28.612Z,62.25
2019-05-11T17:31:37.862Z,62.54
2019-05-11T17:36:46.581Z,62.54
2019-05-11T17:46:59.280Z,63.14
2019-05-11T17:52:08.094Z,63.75
2019-05-11T17:57:15.725Z,64.01
2019-05-11T18:02:22.575Z,64.41
2019-05-11T18:07:30.941Z,64.73
2019-05-11T18:12:39.226Z,64.73
2019-05-11T18:17:48.472Z,65.20
2019-05-11T18:22:57.651Z,64.85
2019-05-11T18:28:04.451Z,65.02
2019-05-11T18:33:11.579Z,65.52
2019-05-11T18:38:18.592Z,67.13
2019-05-11T18:43:27.780Z,67.64
2019-05-11T18:48:37.966Z,67.64
2019-05-11T18:53:44.445Z,68.15
2019-05-11T18:58:53.036Z,67.52
2019-05-11T19:04:00.273Z,67.32
2019-05-11T19:09:08.739Z,67.86
2019-05-11T19:14:15.643Z,68.41
2019-05-11T19:19:22.602Z,68.61
2019-05-11T19:24:32.572Z,69.11
2019-05-11T19:29:39.588Z,68.95
2019-05-11T19:34:47.791Z,68.94
2019-05-11T19:39:54.701Z,68.94
2019-05-11T19:45:01.798Z,69.33
2019-05-11T19:50:09.260Z,69.31
2019-05-11T19:55:17.963Z,69.85
2019-05-11T20:00:28.272Z,70.20
2019-05-11T20:05:38.253Z,70.52
2019-05-11T20:10:45.449Z,70.65
2019-05-11T20:15:52.486Z,70.65
2019-05-11T20:20:59.587Z,70.64
2019-05-11T20:26:08.740Z,70.07
2019-05-11T20:35:38.317Z,69.60
2019-05-11T20:40:45.593Z,67.94
2019-05-11T20:45:52.547Z,66.11
2019-05-11T20:50:59.622Z,65.33
2019-05-11T20:56:08.532Z,64.81
2019-05-11T21:01:17.900Z,64.81
2019-05-11T21:06:25.950Z,62.16
2019-05-11T21:11:33.036Z,62.16
2019-05-11T21:16:40.279Z,61.34
2019-05-11T21:21:53.443Z,60.81
2019-05-11T21:26:58.421Z,59.08
2019-05-11T21:32:08.041Z,58.27
2019-05-11T21:37:14.920Z,58.27
2019-05-11T21:42:25.136Z,58.13
2019-05-11T21:47:34.853Z,57.57
2019-05-11T21:52:42.864Z,57.91
2019-05-11T21:57:50.245Z,56.73
2019-05-11T22:02:57.595Z,57.03
2019-05-11T22:08:04.701Z,56.87
2019-05-11T22:13:11.777Z,56.87
2019-05-11T22:18:30.612Z,56.47
2019-05-11T22:23:28.214Z,56.01
2019-05-11T22:32:09.611Z,56.74
2019-05-11T22:37:18.644Z,55.84
2019-05-11T22:42:27.881Z,53.99
2019-05-11T22:47:34.438Z,53.99
2019-05-11T22:52:41.588Z,53.07
2019-05-11T22:57:48.700Z,51.95
2019-05-11T23:02:55.775Z,51.95
2019-05-11T23:08:03.941Z,50.98
2019-05-11T23:13:12.573Z,51.21
2019-05-11T23:18:20.710Z,51.15
2019-05-11T23:23:28.674Z,51.15
2019-05-11T23:28:37.800Z,51.36
2019-05-11T23:33:45.103Z,51.36
2019-05-11T23:38:52.407Z,51.53
2019-05-11T23:43:59.586Z,51.07
2019-05-11T23:49:08.613Z,50.61
2019-05-11T23:54:15.580Z,50.29
2019-05-11T23:59:22.920Z,50.28
